sensor_id;sensor_type;location;lat;lon;timestamp;P1;durP1;ratioP1;P2;durP2;ratioP2
76786;SDS011;65739;51.482;5.702;2024-03-17T00:00:55;21.23;;;8.18;;
76786;SDS011;65739;51.482;5.702;2024-03-17T00:03:25;14.35;;;8.30;;
76786;SDS011;65739;51.482;5.702;2024-03-17T00:05:54;14.80;;;7.85;;
76786;SDS011;65739;51.482;5.702;2024-03-17T00:08:26;13.52;;;7.68;;
76786;SDS011;65739;51.482;5.702;2024-03-17T00:10:52;13.43;;;7.43;;
76786;SDS011;65739;51.482;5.702;2024-03-17T00:13:19;11.23;;;5.85;;
76786;SDS011;65739;51.482;5.702;2024-03-17T00:15:47;10.20;;;5.95;;
76786;SDS011;65739;51.482;5.702;2024-03-17T00:18:13;11.45;;;6.10;;
76786;SDS011;65739;51.482;5.702;2024-03-17T00:20:39;10.23;;;5.75;;
76786;SDS011;65739;51.482;5.702;2024-03-17T00:23:06;9.85;;;5.82;;
76786;SDS011;65739;51.482;5.702;2024-03-17T00:25:33;11.43;;;5.63;;
76786;SDS011;65739;51.482;5.702;2024-03-17T00:27:59;9.07;;;5.68;;
76786;SDS011;65739;51.482;5.702;2024-03-17T00:30:25;6.90;;;5.05;;
76786;SDS011;65739;51.482;5.702;2024-03-17T00:32:51;10.23;;;5.60;;
76786;SDS011;65739;51.482;5.702;2024-03-17T00:35:17;9.15;;;5.32;;
76786;SDS011;65739;51.482;5.702;2024-03-17T00:37:55;9.57;;;5.88;;
76786;SDS011;65739;51.482;5.702;2024-03-17T00:40:24;8.90;;;5.13;;
76786;SDS011;65739;51.482;5.702;2024-03-17T00:42:53;12.45;;;5.93;;
76786;SDS011;65739;51.482;5.702;2024-03-17T00:45:24;10.27;;;5.78;;
76786;SDS011;65739;51.482;5.702;2024-03-17T00:47:50;10.80;;;5.60;;
76786;SDS011;65739;51.482;5.702;2024-03-17T00:50:25;11.18;;;5.65;;
76786;SDS011;65739;51.482;5.702;2024-03-17T00:52:51;12.90;;;6.13;;
76786;SDS011;65739;51.482;5.702;2024-03-17T00:55:17;9.00;;;5.22;;
76786;SDS011;65739;51.482;5.702;2024-03-17T00:57:43;8.48;;;5.70;;
76786;SDS011;65739;51.482;5.702;2024-03-17T01:00:09;16.92;;;6.82;;
76786;SDS011;65739;51.482;5.702;2024-03-17T01:02:36;12.73;;;6.22;;
76786;SDS011;65739;51.482;5.702;2024-03-17T01:05:03;10.50;;;5.57;;
76786;SDS011;65739;51.482;5.702;2024-03-17T01:07:31;9.00;;;5.35;;
76786;SDS011;65739;51.482;5.702;2024-03-17T01:09:57;7.85;;;5.22;;
76786;SDS011;65739;51.482;5.702;2024-03-17T01:12:23;8.43;;;5.10;;
76786;SDS011;65739;51.482;5.702;2024-03-17T01:14:48;15.57;;;6.38;;
76786;SDS011;65739;51.482;5.702;2024-03-17T01:17:20;9.25;;;5.55;;
76786;SDS011;65739;51.482;5.702;2024-03-17T01:19:45;8.77;;;5.35;;
76786;SDS011;65739;51.482;5.702;2024-03-17T01:22:24;10.43;;;5.93;;
76786;SDS011;65739;51.482;5.702;2024-03-17T01:24:50;12.02;;;5.50;;
76786;SDS011;65739;51.482;5.702;2024-03-17T01:27:16;9.98;;;5.95;;
76786;SDS011;65739;51.482;5.702;2024-03-17T01:29:42;11.82;;;5.80;;
76786;SDS011;65739;51.482;5.702;2024-03-17T01:32:09;12.25;;;5.97;;
76786;SDS011;65739;51.482;5.702;2024-03-17T01:34:36;12.73;;;6.47;;
76786;SDS011;65739;51.482;5.702;2024-03-17T01:37:02;10.43;;;6.30;;
76786;SDS011;65739;51.482;5.702;2024-03-17T01:39:29;11.70;;;6.63;;
76786;SDS011;65739;51.482;5.702;2024-03-17T01:41:55;14.80;;;6.65;;
76786;SDS011;65739;51.482;5.702;2024-03-17T01:44:23;11.50;;;6.13;;
76786;SDS011;65739;51.482;5.702;2024-03-17T01:46:51;12.18;;;7.15;;
76786;SDS011;65739;51.482;5.702;2024-03-17T01:49:18;14.57;;;6.13;;
76786;SDS011;65739;51.482;5.702;2024-03-17T01:51:47;11.93;;;7.57;;
76786;SDS011;65739;51.482;5.702;2024-03-17T01:54:14;17.88;;;7.50;;
76786;SDS011;65739;51.482;5.702;2024-03-17T01:56:41;15.65;;;6.82;;
76786;SDS011;65739;51.482;5.702;2024-03-17T01:59:09;9.50;;;6.88;;
76786;SDS011;65739;51.482;5.702;2024-03-17T02:01:36;9.68;;;7.07;;
76786;SDS011;65739;51.482;5.702;2024-03-17T02:04:02;13.48;;;7.35;;
76786;SDS011;65739;51.482;5.702;2024-03-17T02:06:29;10.57;;;7.00;;
76786;SDS011;65739;51.482;5.702;2024-03-17T02:08:55;13.73;;;7.18;;
76786;SDS011;65739;51.482;5.702;2024-03-17T02:11:26;12.52;;;7.35;;
76786;SDS011;65739;51.482;5.702;2024-03-17T02:14:12;12.32;;;7.38;;
76786;SDS011;65739;51.482;5.702;2024-03-17T02:16:49;13.05;;;7.68;;
76786;SDS011;65739;51.482;5.702;2024-03-17T02:19:15;12.48;;;8.32;;
76786;SDS011;65739;51.482;5.702;2024-03-17T02:21:41;13.85;;;7.47;;
76786;SDS011;65739;51.482;5.702;2024-03-17T02:24:07;14.23;;;8.73;;
76786;SDS011;65739;51.482;5.702;2024-03-17T02:26:36;15.27;;;8.38;;
76786;SDS011;65739;51.482;5.702;2024-03-17T02:29:03;14.57;;;8.23;;
76786;SDS011;65739;51.482;5.702;2024-03-17T02:31:29;19.10;;;9.57;;
76786;SDS011;65739;51.482;5.702;2024-03-17T02:33:55;16.52;;;9.75;;
76786;SDS011;65739;51.482;5.702;2024-03-17T02:36:20;17.95;;;9.05;;
76786;SDS011;65739;51.482;5.702;2024-03-17T02:38:46;19.15;;;9.65;;
76786;SDS011;65739;51.482;5.702;2024-03-17T02:41:31;13.00;;;9.00;;
76786;SDS011;65739;51.482;5.702;2024-03-17T02:43:56;15.65;;;9.48;;
76786;SDS011;65739;51.482;5.702;2024-03-17T02:46:22;16.13;;;9.20;;
76786;SDS011;65739;51.482;5.702;2024-03-17T02:48:50;18.67;;;9.13;;
76786;SDS011;65739;51.482;5.702;2024-03-17T02:51:18;17.25;;;10.23;;
76786;SDS011;65739;51.482;5.702;2024-03-17T02:53:45;18.65;;;9.55;;
76786;SDS011;65739;51.482;5.702;2024-03-17T02:56:13;14.73;;;10.00;;
76786;SDS011;65739;51.482;5.702;2024-03-17T02:58:41;17.38;;;10.00;;
76786;SDS011;65739;51.482;5.702;2024-03-17T03:01:08;17.20;;;10.20;;
76786;SDS011;65739;51.482;5.702;2024-03-17T03:03:37;16.92;;;10.02;;
76786;SDS011;65739;51.482;5.702;2024-03-17T03:06:03;19.30;;;9.90;;
76786;SDS011;65739;51.482;5.702;2024-03-17T03:08:34;14.55;;;10.02;;
76786;SDS011;65739;51.482;5.702;2024-03-17T03:11:05;18.73;;;9.90;;
76786;SDS011;65739;51.482;5.702;2024-03-17T03:13:32;15.63;;;9.75;;
76786;SDS011;65739;51.482;5.702;2024-03-17T03:15:58;17.08;;;9.45;;
76786;SDS011;65739;51.482;5.702;2024-03-17T03:18:23;14.82;;;9.95;;
76786;SDS011;65739;51.482;5.702;2024-03-17T03:20:52;15.73;;;10.38;;
76786;SDS011;65739;51.482;5.702;2024-03-17T03:23:18;19.55;;;11.13;;
76786;SDS011;65739;51.482;5.702;2024-03-17T03:25:44;16.20;;;10.10;;
76786;SDS011;65739;51.482;5.702;2024-03-17T03:28:11;20.15;;;10.40;;
76786;SDS011;65739;51.482;5.702;2024-03-17T03:30:37;18.13;;;10.50;;
76786;SDS011;65739;51.482;5.702;2024-03-17T03:33:03;18.83;;;10.45;;
76786;SDS011;65739;51.482;5.702;2024-03-17T03:35:30;20.23;;;10.68;;
76786;SDS011;65739;51.482;5.702;2024-03-17T03:37:56;18.30;;;10.30;;
76786;SDS011;65739;51.482;5.702;2024-03-17T03:40:21;16.50;;;9.55;;
76786;SDS011;65739;51.482;5.702;2024-03-17T03:42:47;18.45;;;10.10;;
76786;SDS011;65739;51.482;5.702;2024-03-17T03:45:13;16.65;;;10.10;;
76786;SDS011;65739;51.482;5.702;2024-03-17T03:47:39;13.68;;;9.75;;
76786;SDS011;65739;51.482;5.702;2024-03-17T03:50:06;17.88;;;11.00;;
76786;SDS011;65739;51.482;5.702;2024-03-17T03:52:34;17.08;;;10.65;;
76786;SDS011;65739;51.482;5.702;2024-03-17T03:55:00;16.60;;;9.80;;
76786;SDS011;65739;51.482;5.702;2024-03-17T03:57:26;21.17;;;11.00;;
76786;SDS011;65739;51.482;5.702;2024-03-17T03:59:54;18.77;;;10.35;;
76786;SDS011;65739;51.482;5.702;2024-03-17T04:02:20;22.23;;;10.75;;
76786;SDS011;65739;51.482;5.702;2024-03-17T04:04:46;19.60;;;10.93;;
76786;SDS011;65739;51.482;5.702;2024-03-17T04:07:13;16.50;;;10.15;;
76786;SDS011;65739;51.482;5.702;2024-03-17T04:09:38;15.90;;;10.32;;
76786;SDS011;65739;51.482;5.702;2024-03-17T04:12:04;14.48;;;10.45;;
76786;SDS011;65739;51.482;5.702;2024-03-17T04:14:30;16.85;;;10.25;;
76786;SDS011;65739;51.482;5.702;2024-03-17T04:16:56;17.13;;;10.07;;
76786;SDS011;65739;51.482;5.702;2024-03-17T04:19:21;17.05;;;10.13;;
76786;SDS011;65739;51.482;5.702;2024-03-17T04:21:47;17.30;;;10.52;;
76786;SDS011;65739;51.482;5.702;2024-03-17T04:24:13;15.75;;;10.20;;
76786;SDS011;65739;51.482;5.702;2024-03-17T04:26:38;18.40;;;10.38;;
76786;SDS011;65739;51.482;5.702;2024-03-17T04:29:04;14.15;;;10.07;;
76786;SDS011;65739;51.482;5.702;2024-03-17T04:31:30;14.57;;;10.07;;
76786;SDS011;65739;51.482;5.702;2024-03-17T04:33:56;16.83;;;9.65;;
76786;SDS011;65739;51.482;5.702;2024-03-17T04:36:22;14.82;;;9.65;;
76786;SDS011;65739;51.482;5.702;2024-03-17T04:38:48;17.50;;;10.45;;
76786;SDS011;65739;51.482;5.702;2024-03-17T04:41:17;19.20;;;10.55;;
76786;SDS011;65739;51.482;5.702;2024-03-17T04:43:43;14.25;;;9.77;;
76786;SDS011;65739;51.482;5.702;2024-03-17T04:46:09;16.73;;;10.27;;
76786;SDS011;65739;51.482;5.702;2024-03-17T04:48:37;15.85;;;10.45;;
76786;SDS011;65739;51.482;5.702;2024-03-17T04:51:03;19.05;;;10.73;;
76786;SDS011;65739;51.482;5.702;2024-03-17T04:53:30;17.38;;;11.75;;
76786;SDS011;65739;51.482;5.702;2024-03-17T04:56:03;15.77;;;10.55;;
76786;SDS011;65739;51.482;5.702;2024-03-17T04:58:33;20.33;;;10.68;;
76786;SDS011;65739;51.482;5.702;2024-03-17T05:01:06;16.85;;;10.65;;
76786;SDS011;65739;51.482;5.702;2024-03-17T05:03:33;16.13;;;10.93;;
76786;SDS011;65739;51.482;5.702;2024-03-17T05:06:10;16.25;;;9.85;;
76786;SDS011;65739;51.482;5.702;2024-03-17T05:08:35;16.13;;;10.57;;
76786;SDS011;65739;51.482;5.702;2024-03-17T05:11:02;15.73;;;10.60;;
76786;SDS011;65739;51.482;5.702;2024-03-17T05:13:35;16.67;;;10.43;;
76786;SDS011;65739;51.482;5.702;2024-03-17T05:16:04;15.43;;;10.48;;
76786;SDS011;65739;51.482;5.702;2024-03-17T05:18:30;15.70;;;10.75;;
76786;SDS011;65739;51.482;5.702;2024-03-17T05:21:00;14.48;;;9.90;;
76786;SDS011;65739;51.482;5.702;2024-03-17T05:23:32;17.20;;;10.43;;
76786;SDS011;65739;51.482;5.702;2024-03-17T05:25:59;16.63;;;10.18;;
76786;SDS011;65739;51.482;5.702;2024-03-17T05:28:25;16.70;;;10.13;;
76786;SDS011;65739;51.482;5.702;2024-03-17T05:30:57;15.70;;;9.90;;
76786;SDS011;65739;51.482;5.702;2024-03-17T05:33:24;17.05;;;9.63;;
76786;SDS011;65739;51.482;5.702;2024-03-17T05:35:57;19.70;;;10.93;;
76786;SDS011;65739;51.482;5.702;2024-03-17T05:38:33;17.17;;;10.65;;
76786;SDS011;65739;51.482;5.702;2024-03-17T05:40:59;18.83;;;10.20;;
76786;SDS011;65739;51.482;5.702;2024-03-17T05:43:30;18.95;;;10.93;;
76786;SDS011;65739;51.482;5.702;2024-03-17T05:46:12;20.52;;;10.75;;
76786;SDS011;65739;51.482;5.702;2024-03-17T05:48:39;14.85;;;10.23;;
76786;SDS011;65739;51.482;5.702;2024-03-17T05:51:14;17.42;;;10.43;;
76786;SDS011;65739;51.482;5.702;2024-03-17T05:53:41;15.60;;;10.10;;
76786;SDS011;65739;51.482;5.702;2024-03-17T05:56:09;20.23;;;10.48;;
76786;SDS011;65739;51.482;5.702;2024-03-17T05:58:39;18.85;;;10.25;;
76786;SDS011;65739;51.482;5.702;2024-03-17T06:01:05;17.15;;;10.65;;
76786;SDS011;65739;51.482;5.702;2024-03-17T06:03:34;18.33;;;10.90;;
76786;SDS011;65739;51.482;5.702;2024-03-17T06:06:03;18.83;;;10.85;;
76786;SDS011;65739;51.482;5.702;2024-03-17T06:08:35;16.40;;;10.57;;
76786;SDS011;65739;51.482;5.702;2024-03-17T06:11:04;15.82;;;10.27;;
76786;SDS011;65739;51.482;5.702;2024-03-17T06:13:30;19.60;;;11.20;;
76786;SDS011;65739;51.482;5.702;2024-03-17T06:15:56;19.92;;;10.73;;
76786;SDS011;65739;51.482;5.702;2024-03-17T06:18:25;17.35;;;10.77;;
76786;SDS011;65739;51.482;5.702;2024-03-17T06:20:57;19.33;;;9.77;;
76786;SDS011;65739;51.482;5.702;2024-03-17T06:23:23;15.35;;;9.95;;
76786;SDS011;65739;51.482;5.702;2024-03-17T06:25:49;14.90;;;9.32;;
76786;SDS011;65739;51.482;5.702;2024-03-17T06:31:09;14.02;;;9.27;;
76786;SDS011;65739;51.482;5.702;2024-03-17T06:33:35;18.08;;;9.52;;
76786;SDS011;65739;51.482;5.702;2024-03-17T06:36:30;20.08;;;9.55;;
76786;SDS011;65739;51.482;5.702;2024-03-17T06:39:16;14.30;;;8.88;;
76786;SDS011;65739;51.482;5.702;2024-03-17T06:45:45;13.68;;;8.77;;
76786;SDS011;65739;51.482;5.702;2024-03-17T06:49:03;15.27;;;8.45;;
76786;SDS011;65739;51.482;5.702;2024-03-17T06:51:32;12.85;;;8.13;;
76786;SDS011;65739;51.482;5.702;2024-03-17T06:57:18;10.80;;;7.95;;
76786;SDS011;65739;51.482;5.702;2024-03-17T07:00:15;11.63;;;7.35;;
76786;SDS011;65739;51.482;5.702;2024-03-17T07:03:00;11.55;;;7.63;;
76786;SDS011;65739;51.482;5.702;2024-03-17T07:05:26;11.45;;;7.32;;
76786;SDS011;65739;51.482;5.702;2024-03-17T07:24:38;11.48;;;6.45;;
76786;SDS011;65739;51.482;5.702;2024-03-17T07:27:04;9.23;;;6.20;;
76786;SDS011;65739;51.482;5.702;2024-03-17T07:29:36;7.18;;;5.72;;
76786;SDS011;65739;51.482;5.702;2024-03-17T07:32:11;6.43;;;5.13;;
76786;SDS011;65739;51.482;5.702;2024-03-17T07:34:39;9.07;;;5.40;;
76786;SDS011;65739;51.482;5.702;2024-03-17T07:37:05;8.00;;;4.57;;
76786;SDS011;65739;51.482;5.702;2024-03-17T07:39:34;6.95;;;5.03;;
76786;SDS011;65739;51.482;5.702;2024-03-17T07:42:00;7.00;;;5.05;;
76786;SDS011;65739;51.482;5.702;2024-03-17T07:44:26;6.32;;;4.45;;
76786;SDS011;65739;51.482;5.702;2024-03-17T07:46:59;7.40;;;4.95;;
76786;SDS011;65739;51.482;5.702;2024-03-17T07:49:26;6.97;;;4.72;;
76786;SDS011;65739;51.482;5.702;2024-03-17T07:51:51;5.05;;;4.10;;
76786;SDS011;65739;51.482;5.702;2024-03-17T07:54:17;7.35;;;4.82;;
76786;SDS011;65739;51.482;5.702;2024-03-17T07:56:44;8.65;;;4.57;;
76786;SDS011;65739;51.482;5.702;2024-03-17T07:59:11;7.40;;;5.03;;
76786;SDS011;65739;51.482;5.702;2024-03-17T08:01:40;6.57;;;4.00;;
76786;SDS011;65739;51.482;5.702;2024-03-17T08:04:06;6.63;;;4.05;;
76786;SDS011;65739;51.482;5.702;2024-03-17T08:06:31;6.53;;;4.18;;
76786;SDS011;65739;51.482;5.702;2024-03-17T08:08:57;8.02;;;4.55;;
76786;SDS011;65739;51.482;5.702;2024-03-17T08:11:23;7.30;;;4.80;;
76786;SDS011;65739;51.482;5.702;2024-03-17T08:13:51;9.73;;;4.55;;
76786;SDS011;65739;51.482;5.702;2024-03-17T08:16:20;6.00;;;4.45;;
76786;SDS011;65739;51.482;5.702;2024-03-17T08:18:46;6.93;;;4.82;;
76786;SDS011;65739;51.482;5.702;2024-03-17T08:21:11;7.38;;;4.93;;
76786;SDS011;65739;51.482;5.702;2024-03-17T08:23:37;5.63;;;4.20;;
76786;SDS011;65739;51.482;5.702;2024-03-17T08:26:07;6.68;;;4.45;;
76786;SDS011;65739;51.482;5.702;2024-03-17T08:28:34;7.03;;;4.40;;
76786;SDS011;65739;51.482;5.702;2024-03-17T08:31:00;8.48;;;4.47;;
76786;SDS011;65739;51.482;5.702;2024-03-17T08:33:26;8.52;;;4.38;;
76786;SDS011;65739;51.482;5.702;2024-03-17T08:36:03;8.10;;;4.53;;
76786;SDS011;65739;51.482;5.702;2024-03-17T08:38:33;6.00;;;4.55;;
76786;SDS011;65739;51.482;5.702;2024-03-17T08:41:03;6.85;;;4.03;;
76786;SDS011;65739;51.482;5.702;2024-03-17T08:43:29;6.43;;;4.03;;
76786;SDS011;65739;51.482;5.702;2024-03-17T08:50:52;6.85;;;4.60;;
76786;SDS011;65739;51.482;5.702;2024-03-17T08:53:22;10.50;;;4.38;;
76786;SDS011;65739;51.482;5.702;2024-03-17T08:55:48;6.40;;;4.70;;
76786;SDS011;65739;51.482;5.702;2024-03-17T08:58:14;8.32;;;4.60;;
76786;SDS011;65739;51.482;5.702;2024-03-17T09:00:40;7.18;;;4.60;;
76786;SDS011;65739;51.482;5.702;2024-03-17T09:03:06;6.65;;;4.53;;
76786;SDS011;65739;51.482;5.702;2024-03-17T09:05:36;5.93;;;4.50;;
76786;SDS011;65739;51.482;5.702;2024-03-17T09:08:02;6.80;;;4.40;;
76786;SDS011;65739;51.482;5.702;2024-03-17T09:10:28;5.80;;;4.50;;
76786;SDS011;65739;51.482;5.702;2024-03-17T09:12:53;9.00;;;4.70;;
76786;SDS011;65739;51.482;5.702;2024-03-17T09:15:19;6.93;;;4.60;;
76786;SDS011;65739;51.482;5.702;2024-03-17T09:17:45;8.38;;;4.38;;
76786;SDS011;65739;51.482;5.702;2024-03-17T09:20:11;6.80;;;4.53;;
76786;SDS011;65739;51.482;5.702;2024-03-17T09:22:39;7.13;;;4.90;;
76786;SDS011;65739;51.482;5.702;2024-03-17T09:25:09;6.72;;;4.35;;
76786;SDS011;65739;51.482;5.702;2024-03-17T09:27:35;6.53;;;4.93;;
76786;SDS011;65739;51.482;5.702;2024-03-17T09:30:04;12.38;;;4.50;;
76786;SDS011;65739;51.482;5.702;2024-03-17T09:32:36;8.27;;;4.07;;
76786;SDS011;65739;51.482;5.702;2024-03-17T09:35:02;7.93;;;4.43;;
76786;SDS011;65739;51.482;5.702;2024-03-17T09:37:28;5.07;;;4.07;;
76786;SDS011;65739;51.482;5.702;2024-03-17T09:39:56;7.68;;;4.15;;
76786;SDS011;65739;51.482;5.702;2024-03-17T09:42:23;10.93;;;4.47;;
76786;SDS011;65739;51.482;5.702;2024-03-17T09:44:49;7.05;;;4.05;;
76786;SDS011;65739;51.482;5.702;2024-03-17T09:47:20;6.53;;;4.25;;
76786;SDS011;65739;51.482;5.702;2024-03-17T09:49:47;5.93;;;4.28;;
76786;SDS011;65739;51.482;5.702;2024-03-17T09:52:19;6.72;;;4.40;;
76786;SDS011;65739;51.482;5.702;2024-03-17T09:54:53;6.20;;;3.80;;
76786;SDS011;65739;51.482;5.702;2024-03-17T09:57:34;5.57;;;3.83;;
76786;SDS011;65739;51.482;5.702;2024-03-17T10:00:04;7.32;;;4.05;;
76786;SDS011;65739;51.482;5.702;2024-03-17T10:02:41;4.88;;;4.28;;
76786;SDS011;65739;51.482;5.702;2024-03-17T10:07:44;6.05;;;4.57;;
76786;SDS011;65739;51.482;5.702;2024-03-17T10:10:10;8.80;;;4.13;;
76786;SDS011;65739;51.482;5.702;2024-03-17T10:12:41;9.98;;;4.22;;
76786;SDS011;65739;51.482;5.702;2024-03-17T10:15:08;6.78;;;4.53;;
76786;SDS011;65739;51.482;5.702;2024-03-17T10:17:36;8.23;;;4.60;;
76786;SDS011;65739;51.482;5.702;2024-03-17T10:20:12;7.05;;;4.32;;
76786;SDS011;65739;51.482;5.702;2024-03-17T10:22:59;6.15;;;4.10;;
76786;SDS011;65739;51.482;5.702;2024-03-17T10:25:26;5.13;;;4.00;;
76786;SDS011;65739;51.482;5.702;2024-03-17T10:27:53;8.80;;;5.00;;
76786;SDS011;65739;51.482;5.702;2024-03-17T10:30:19;7.85;;;4.50;;
76786;SDS011;65739;51.482;5.702;2024-03-17T10:32:53;8.20;;;4.88;;
76786;SDS011;65739;51.482;5.702;2024-03-17T10:35:32;4.88;;;4.32;;
76786;SDS011;65739;51.482;5.702;2024-03-17T10:38:00;7.13;;;4.55;;
76786;SDS011;65739;51.482;5.702;2024-03-17T10:40:28;9.38;;;4.00;;
76786;SDS011;65739;51.482;5.702;2024-03-17T10:42:54;6.57;;;4.68;;
76786;SDS011;65739;51.482;5.702;2024-03-17T10:45:20;7.10;;;4.25;;
76786;SDS011;65739;51.482;5.702;2024-03-17T10:47:50;5.55;;;4.38;;
76786;SDS011;65739;51.482;5.702;2024-03-17T10:50:20;8.93;;;4.45;;
76786;SDS011;65739;51.482;5.702;2024-03-17T10:55:21;8.13;;;4.07;;
76786;SDS011;65739;51.482;5.702;2024-03-17T10:57:51;5.53;;;4.40;;
76786;SDS011;65739;51.482;5.702;2024-03-17T11:00:20;5.10;;;4.30;;
76786;SDS011;65739;51.482;5.702;2024-03-17T11:02:47;8.00;;;4.57;;
76786;SDS011;65739;51.482;5.702;2024-03-17T11:05:25;5.13;;;4.40;;
76786;SDS011;65739;51.482;5.702;2024-03-17T11:07:58;5.88;;;4.25;;
76786;SDS011;65739;51.482;5.702;2024-03-17T11:10:33;6.10;;;4.30;;
76786;SDS011;65739;51.482;5.702;2024-03-17T11:13:01;5.90;;;4.22;;
76786;SDS011;65739;51.482;5.702;2024-03-17T11:20:39;9.77;;;4.60;;
76786;SDS011;65739;51.482;5.702;2024-03-17T11:28:01;6.20;;;4.32;;
76786;SDS011;65739;51.482;5.702;2024-03-17T11:38:57;5.57;;;4.38;;
76786;SDS011;65739;51.482;5.702;2024-03-17T11:49:33;7.00;;;4.47;;
76786;SDS011;65739;51.482;5.702;2024-03-17T11:52:09;7.15;;;4.65;;
76786;SDS011;65739;51.482;5.702;2024-03-17T11:54:39;7.90;;;4.90;;
76786;SDS011;65739;51.482;5.702;2024-03-17T11:57:07;7.30;;;4.32;;
76786;SDS011;65739;51.482;5.702;2024-03-17T11:59:35;8.93;;;4.60;;
76786;SDS011;65739;51.482;5.702;2024-03-17T12:02:02;6.13;;;4.07;;
76786;SDS011;65739;51.482;5.702;2024-03-17T12:04:27;6.38;;;4.43;;
76786;SDS011;65739;51.482;5.702;2024-03-17T12:06:58;6.05;;;4.22;;
76786;SDS011;65739;51.482;5.702;2024-03-17T12:11:51;6.70;;;4.30;;
76786;SDS011;65739;51.482;5.702;2024-03-17T12:14:23;7.60;;;4.18;;
76786;SDS011;65739;51.482;5.702;2024-03-17T12:16:53;5.80;;;3.88;;
76786;SDS011;65739;51.482;5.702;2024-03-17T12:19:20;7.00;;;4.05;;
76786;SDS011;65739;51.482;5.702;2024-03-17T12:21:53;4.68;;;4.10;;
76786;SDS011;65739;51.482;5.702;2024-03-17T12:24:20;6.00;;;4.05;;
76786;SDS011;65739;51.482;5.702;2024-03-17T12:26:48;7.20;;;4.22;;
76786;SDS011;65739;51.482;5.702;2024-03-17T12:29:21;6.53;;;4.03;;
76786;SDS011;65739;51.482;5.702;2024-03-17T12:31:50;8.00;;;4.10;;
76786;SDS011;65739;51.482;5.702;2024-03-17T12:34:16;6.03;;;4.43;;
76786;SDS011;65739;51.482;5.702;2024-03-17T12:36:44;6.85;;;3.88;;
76786;SDS011;65739;51.482;5.702;2024-03-17T12:39:20;5.43;;;4.38;;
76786;SDS011;65739;51.482;5.702;2024-03-17T12:42:51;5.15;;;4.53;;
76786;SDS011;65739;51.482;5.702;2024-03-17T12:44:49;7.75;;;4.35;;
76786;SDS011;65739;51.482;5.702;2024-03-17T12:47:23;7.32;;;4.43;;
76786;SDS011;65739;51.482;5.702;2024-03-17T12:49:56;9.93;;;4.53;;
76786;SDS011;65739;51.482;5.702;2024-03-17T12:52:23;5.47;;;4.32;;
76786;SDS011;65739;51.482;5.702;2024-03-17T12:55:00;5.10;;;4.18;;
76786;SDS011;65739;51.482;5.702;2024-03-17T12:57:48;5.80;;;4.38;;
76786;SDS011;65739;51.482;5.702;2024-03-17T13:01:01;9.93;;;4.10;;
76786;SDS011;65739;51.482;5.702;2024-03-17T13:03:29;9.35;;;5.05;;
76786;SDS011;65739;51.482;5.702;2024-03-17T13:05:59;7.28;;;4.78;;
76786;SDS011;65739;51.482;5.702;2024-03-17T13:08:34;5.20;;;4.57;;
76786;SDS011;65739;51.482;5.702;2024-03-17T13:11:00;6.43;;;3.97;;
76786;SDS011;65739;51.482;5.702;2024-03-17T13:13:29;5.88;;;4.82;;
76786;SDS011;65739;51.482;5.702;2024-03-17T13:15:54;5.68;;;4.22;;
76786;SDS011;65739;51.482;5.702;2024-03-17T13:18:20;6.57;;;4.50;;
76786;SDS011;65739;51.482;5.702;2024-03-17T13:20:49;4.70;;;4.15;;
76786;SDS011;65739;51.482;5.702;2024-03-17T13:23:15;5.78;;;4.05;;
76786;SDS011;65739;51.482;5.702;2024-03-17T13:25:40;6.22;;;4.35;;
76786;SDS011;65739;51.482;5.702;2024-03-17T13:28:08;7.60;;;4.80;;
76786;SDS011;65739;51.482;5.702;2024-03-17T13:30:35;8.90;;;4.80;;
76786;SDS011;65739;51.482;5.702;2024-03-17T13:33:01;9.60;;;4.88;;
76786;SDS011;65739;51.482;5.702;2024-03-17T13:35:33;8.48;;;4.13;;
76786;SDS011;65739;51.482;5.702;2024-03-17T13:38:00;6.30;;;4.50;;
76786;SDS011;65739;51.482;5.702;2024-03-17T13:40:27;8.82;;;4.30;;
76786;SDS011;65739;51.482;5.702;2024-03-17T13:42:54;5.97;;;4.32;;
76786;SDS011;65739;51.482;5.702;2024-03-17T13:45:21;5.80;;;4.25;;
76786;SDS011;65739;51.482;5.702;2024-03-17T13:50:15;8.25;;;3.95;;
76786;SDS011;65739;51.482;5.702;2024-03-17T13:52:41;7.82;;;3.90;;
76786;SDS011;65739;51.482;5.702;2024-03-17T13:55:12;8.05;;;4.50;;
76786;SDS011;65739;51.482;5.702;2024-03-17T13:57:49;4.85;;;3.67;;
76786;SDS011;65739;51.482;5.702;2024-03-17T14:00:17;5.93;;;3.22;;
76786;SDS011;65739;51.482;5.702;2024-03-17T14:02:44;8.90;;;4.13;;
76786;SDS011;65739;51.482;5.702;2024-03-17T14:05:15;3.97;;;3.03;;
76786;SDS011;65739;51.482;5.702;2024-03-17T14:07:42;6.03;;;3.33;;
76786;SDS011;65739;51.482;5.702;2024-03-17T14:10:08;5.68;;;3.58;;
76786;SDS011;65739;51.482;5.702;2024-03-17T14:12:36;7.43;;;3.92;;
76786;SDS011;65739;51.482;5.702;2024-03-17T14:15:05;6.07;;;3.65;;
76786;SDS011;65739;51.482;5.702;2024-03-17T14:17:32;8.00;;;3.40;;
76786;SDS011;65739;51.482;5.702;2024-03-17T14:19:58;5.00;;;3.33;;
76786;SDS011;65739;51.482;5.702;2024-03-17T14:22:24;3.78;;;2.67;;
76786;SDS011;65739;51.482;5.702;2024-03-17T14:24:50;5.60;;;3.28;;
76786;SDS011;65739;51.482;5.702;2024-03-17T14:27:16;5.28;;;2.97;;
76786;SDS011;65739;51.482;5.702;2024-03-17T14:29:44;3.33;;;2.63;;
76786;SDS011;65739;51.482;5.702;2024-03-17T14:32:10;7.00;;;3.08;;
76786;SDS011;65739;51.482;5.702;2024-03-17T14:34:36;9.88;;;3.05;;
76786;SDS011;65739;51.482;5.702;2024-03-17T14:37:03;4.97;;;3.08;;
76786;SDS011;65739;51.482;5.702;2024-03-17T14:39:32;4.75;;;3.10;;
76786;SDS011;65739;51.482;5.702;2024-03-17T14:41:58;4.35;;;2.92;;
76786;SDS011;65739;51.482;5.702;2024-03-17T14:44:23;3.13;;;2.78;;
76786;SDS011;65739;51.482;5.702;2024-03-17T14:46:49;6.22;;;3.42;;
76786;SDS011;65739;51.482;5.702;2024-03-17T14:49:19;11.18;;;3.80;;
76786;SDS011;65739;51.482;5.702;2024-03-17T14:51:45;4.30;;;2.78;;
76786;SDS011;65739;51.482;5.702;2024-03-17T14:54:10;5.30;;;3.25;;
76786;SDS011;65739;51.482;5.702;2024-03-17T14:56:36;6.53;;;3.03;;
76786;SDS011;65739;51.482;5.702;2024-03-17T14:59:02;5.25;;;2.80;;
76786;SDS011;65739;51.482;5.702;2024-03-17T15:01:28;6.28;;;3.42;;
76786;SDS011;65739;51.482;5.702;2024-03-17T15:03:55;7.85;;;3.40;;
76786;SDS011;65739;51.482;5.702;2024-03-17T15:06:20;3.63;;;2.72;;
76786;SDS011;65739;51.482;5.702;2024-03-17T15:08:47;7.53;;;3.90;;
76786;SDS011;65739;51.482;5.702;2024-03-17T15:11:12;5.93;;;3.03;;
76786;SDS011;65739;51.482;5.702;2024-03-17T15:13:38;4.53;;;2.40;;
76786;SDS011;65739;51.482;5.702;2024-03-17T15:16:04;4.93;;;2.45;;
76786;SDS011;65739;51.482;5.702;2024-03-17T15:18:31;6.13;;;2.47;;
76786;SDS011;65739;51.482;5.702;2024-03-17T15:20:58;4.78;;;2.67;;
76786;SDS011;65739;51.482;5.702;2024-03-17T15:23:25;4.25;;;2.70;;
76786;SDS011;65739;51.482;5.702;2024-03-17T15:28:26;6.85;;;2.80;;
76786;SDS011;65739;51.482;5.702;2024-03-17T15:30:52;5.80;;;2.95;;
76786;SDS011;65739;51.482;5.702;2024-03-17T15:33:17;5.05;;;2.53;;
76786;SDS011;65739;51.482;5.702;2024-03-17T15:35:43;3.03;;;2.22;;
76786;SDS011;65739;51.482;5.702;2024-03-17T15:38:08;3.60;;;2.25;;
76786;SDS011;65739;51.482;5.702;2024-03-17T15:40:34;7.93;;;2.58;;
76786;SDS011;65739;51.482;5.702;2024-03-17T15:43:00;5.45;;;2.38;;
76786;SDS011;65739;51.482;5.702;2024-03-17T15:45:25;5.78;;;2.90;;
76786;SDS011;65739;51.482;5.702;2024-03-17T15:47:52;3.85;;;2.55;;
76786;SDS011;65739;51.482;5.702;2024-03-17T15:50:18;5.70;;;3.13;;
76786;SDS011;65739;51.482;5.702;2024-03-17T15:52:44;4.43;;;2.90;;
76786;SDS011;65739;51.482;5.702;2024-03-17T15:55:10;4.50;;;2.67;;
76786;SDS011;65739;51.482;5.702;2024-03-17T15:57:35;5.25;;;3.03;;